sensor_id;sensor_type;location;lat;lon;timestamp;temperature;humidity
4002;DHT22;2015;48.670;9.060;2023-01-24T00:01:27;2.00;99.90
4002;DHT22;2015;48.670;9.060;2023-01-24T00:03:59;1.90;99.90
4002;DHT22;2015;48.670;9.060;2023-01-24T00:06:30;1.90;99.90
4002;DHT22;2015;48.670;9.060;2023-01-24T00:09:02;1.90;99.90
4002;DHT22;2015;48.670;9.060;2023-01-24T00:11:34;1.90;99.90
4002;DHT22;2015;48.670;9.060;2023-01-24T00:14:06;1.90;99.90
4002;DHT22;2015;48.670;9.060;2023-01-24T00:16:38;1.90;99.90
4002;DHT22;2015;48.670;9.060;2023-01-24T00:19:09;1.90;99.90
4002;DHT22;2015;48.670;9.060;2023-01-24T00:21:41;1.90;99.90
4002;DHT22;2015;48.670;9.060;2023-01-24T00:24:13;1.90;99.90
4002;DHT22;2015;48.670;9.060;2023-01-24T00:26:45;1.90;99.90
4002;DHT22;2015;48.670;9.060;2023-01-24T00:29:17;1.90;99.90
4002;DHT22;2015;48.670;9.060;2023-01-24T00:31:48;1.80;99.90
4002;DHT22;2015;48.670;9.060;2023-01-24T00:34:20;1.80;99.90
4002;DHT22;2015;48.670;9.060;2023-01-24T00:36:52;1.90;99.90
4002;DHT22;2015;48.670;9.060;2023-01-24T00:39:24;1.90;99.90
4002;DHT22;2015;48.670;9.060;2023-01-24T00:41:55;1.90;99.90
4002;DHT22;2015;48.670;9.060;2023-01-24T00:44:27;1.90;99.90
4002;DHT22;2015;48.670;9.060;2023-01-24T00:46:59;1.90;99.90
4002;DHT22;2015;48.670;9.060;2023-01-24T00:49:31;1.90;99.90
4002;DHT22;2015;48.670;9.060;2023-01-24T00:52:03;1.90;99.90
4002;DHT22;2015;48.670;9.060;2023-01-24T00:54:34;1.90;99.90
4002;DHT22;2015;48.670;9.060;2023-01-24T00:57:06;1.90;99.90
4002;DHT22;2015;48.670;9.060;2023-01-24T00:59:38;1.90;99.90
4002;DHT22;2015;48.670;9.060;2023-01-24T01:02:10;1.80;99.90
4002;DHT22;2015;48.670;9.060;2023-01-24T01:04:41;1.80;99.90
4002;DHT22;2015;48.670;9.060;2023-01-24T01:07:13;1.80;99.90
4002;DHT22;2015;48.670;9.060;2023-01-24T01:09:46;1.80;99.90
4002;DHT22;2015;48.670;9.060;2023-01-24T01:12:17;1.90;99.90
4002;DHT22;2015;48.670;9.060;2023-01-24T01:14:49;1.90;99.90
4002;DHT22;2015;48.670;9.060;2023-01-24T01:17:21;1.90;99.90
4002;DHT22;2015;48.670;9.060;2023-01-24T01:19:53;1.90;99.90
4002;DHT22;2015;48.670;9.060;2023-01-24T01:22:25;1.90;99.90
4002;DHT22;2015;48.670;9.060;2023-01-24T01:24:57;1.90;99.90
4002;DHT22;2015;48.670;9.060;2023-01-24T01:27:29;1.90;99.90
4002;DHT22;2015;48.670;9.060;2023-01-24T01:30:01;1.90;99.90
4002;DHT22;2015;48.670;9.060;2023-01-24T01:32:32;1.80;99.90
4002;DHT22;2015;48.670;9.060;2023-01-24T01:35:04;1.80;99.90
4002;DHT22;2015;48.670;9.060;2023-01-24T01:37:36;1.90;99.90
4002;DHT22;2015;48.670;9.060;2023-01-24T01:40:09;1.90;99.90
4002;DHT22;2015;48.670;9.060;2023-01-24T01:53:51;1.90;99.90
4002;DHT22;2015;48.670;9.060;2023-01-24T01:58:58;1.90;99.90
4002;DHT22;2015;48.670;9.060;2023-01-24T02:01:31;1.90;99.90
4002;DHT22;2015;48.670;9.060;2023-01-24T02:04:28;1.90;99.90
4002;DHT22;2015;48.670;9.060;2023-01-24T02:07:10;1.80;99.90
4002;DHT22;2015;48.670;9.060;2023-01-24T02:09:49;1.90;99.90
4002;DHT22;2015;48.670;9.060;2023-01-24T02:12:28;1.80;99.90
4002;DHT22;2015;48.670;9.060;2023-01-24T02:15:10;1.90;99.90
4002;DHT22;2015;48.670;9.060;2023-01-24T02:18:01;1.80;99.90
4002;DHT22;2015;48.670;9.060;2023-01-24T02:20:45;1.80;99.90
4002;DHT22;2015;48.670;9.060;2023-01-24T02:26:16;1.80;99.90
4002;DHT22;2015;48.670;9.060;2023-01-24T02:28:54;1.80;99.90
4002;DHT22;2015;48.670;9.060;2023-01-24T02:31:27;1.80;99.90
4002;DHT22;2015;48.670;9.060;2023-01-24T02:33:59;1.80;99.90
4002;DHT22;2015;48.670;9.060;2023-01-24T02:36:34;1.80;99.90
4002;DHT22;2015;48.670;9.060;2023-01-24T02:39:11;1.80;99.90
4002;DHT22;2015;48.670;9.060;2023-01-24T02:41:45;1.80;99.90
4002;DHT22;2015;48.670;9.060;2023-01-24T02:44:21;1.80;99.90
4002;DHT22;2015;48.670;9.060;2023-01-24T02:46:54;1.80;99.90
4002;DHT22;2015;48.670;9.060;2023-01-24T02:49:26;1.80;99.90
4002;DHT22;2015;48.670;9.060;2023-01-24T02:51:58;1.80;99.90
4002;DHT22;2015;48.670;9.060;2023-01-24T02:54:48;1.80;99.90
4002;DHT22;2015;48.670;9.060;2023-01-24T02:57:19;1.80;99.90
4002;DHT22;2015;48.670;9.060;2023-01-24T03:00:10;1.80;99.90
4002;DHT22;2015;48.670;9.060;2023-01-24T03:02:42;1.80;99.90
4002;DHT22;2015;48.670;9.060;2023-01-24T03:05:14;1.80;99.90
4002;DHT22;2015;48.670;9.060;2023-01-24T03:07:46;1.80;99.90
4002;DHT22;2015;48.670;9.060;2023-01-24T03:10:18;1.80;99.90
4002;DHT22;2015;48.670;9.060;2023-01-24T03:12:50;1.70;99.90
4002;DHT22;2015;48.670;9.060;2023-01-24T03:15:40;1.70;99.90
4002;DHT22;2015;48.670;9.060;2023-01-24T03:18:31;1.70;99.90
4002;DHT22;2015;48.670;9.060;2023-01-24T03:21:21;1.70;99.90
4002;DHT22;2015;48.670;9.060;2023-01-24T03:24:12;1.70;99.90
4002;DHT22;2015;48.670;9.060;2023-01-24T03:27:02;1.70;99.90
4002;DHT22;2015;48.670;9.060;2023-01-24T03:29:53;1.70;99.90
4002;DHT22;2015;48.670;9.060;2023-01-24T03:32:43;1.70;99.90
4002;DHT22;2015;48.670;9.060;2023-01-24T03:35:34;1.70;99.90
4002;DHT22;2015;48.670;9.060;2023-01-24T03:38:06;1.70;99.90
4002;DHT22;2015;48.670;9.060;2023-01-24T03:40:56;1.70;99.90
4002;DHT22;2015;48.670;9.060;2023-01-24T03:43:28;1.70;99.90
4002;DHT22;2015;48.670;9.060;2023-01-24T03:46:00;1.70;99.90
4002;DHT22;2015;48.670;9.060;2023-01-24T03:48:32;1.70;99.90
4002;DHT22;2015;48.670;9.060;2023-01-24T03:51:08;1.70;99.90
4002;DHT22;2015;48.670;9.060;2023-01-24T03:53:58;1.70;99.90
4002;DHT22;2015;48.670;9.060;2023-01-24T03:56:30;1.70;99.90
4002;DHT22;2015;48.670;9.060;2023-01-24T03:59:02;1.70;99.90
4002;DHT22;2015;48.670;9.060;2023-01-24T04:01:34;1.70;99.90
4002;DHT22;2015;48.670;9.060;2023-01-24T04:04:05;1.70;99.90
4002;DHT22;2015;48.670;9.060;2023-01-24T04:06:37;1.70;99.90
4002;DHT22;2015;48.670;9.060;2023-01-24T04:09:09;1.70;99.90
4002;DHT22;2015;48.670;9.060;2023-01-24T04:11:41;1.70;99.90
4002;DHT22;2015;48.670;9.060;2023-01-24T04:14:13;1.70;99.90
4002;DHT22;2015;48.670;9.060;2023-01-24T04:16:44;1.70;99.90
4002;DHT22;2015;48.670;9.060;2023-01-24T04:19:16;1.70;99.90
4002;DHT22;2015;48.670;9.060;2023-01-24T04:21:48;1.70;99.90
4002;DHT22;2015;48.670;9.060;2023-01-24T04:24:19;1.70;99.90
4002;DHT22;2015;48.670;9.060;2023-01-24T04:26:51;1.70;99.90
4002;DHT22;2015;48.670;9.060;2023-01-24T04:29:23;1.70;99.90
4002;DHT22;2015;48.670;9.060;2023-01-24T04:31:55;1.70;99.90
4002;DHT22;2015;48.670;9.060;2023-01-24T04:34:27;1.70;99.90
4002;DHT22;2015;48.670;9.060;2023-01-24T04:36:58;1.70;99.90
4002;DHT22;2015;48.670;9.060;2023-01-24T04:39:30;1.70;99.90
4002;DHT22;2015;48.670;9.060;2023-01-24T04:42:02;1.70;99.90
4002;DHT22;2015;48.670;9.060;2023-01-24T04:44:34;1.70;99.90
4002;DHT22;2015;48.670;9.060;2023-01-24T04:47:05;1.70;99.90
4002;DHT22;2015;48.670;9.060;2023-01-24T04:49:37;1.70;99.90
4002;DHT22;2015;48.670;9.060;2023-01-24T04:52:11;1.70;99.90
4002;DHT22;2015;48.670;9.060;2023-01-24T04:54:44;1.70;99.90
4002;DHT22;2015;48.670;9.060;2023-01-24T04:57:15;1.70;99.90
4002;DHT22;2015;48.670;9.060;2023-01-24T04:59:47;1.70;99.90
4002;DHT22;2015;48.670;9.060;2023-01-24T05:02:19;1.70;99.90
4002;DHT22;2015;48.670;9.060;2023-01-24T05:04:50;1.70;99.90
4002;DHT22;2015;48.670;9.060;2023-01-24T05:07:22;1.70;99.90
4002;DHT22;2015;48.670;9.060;2023-01-24T05:09:54;1.80;99.90
4002;DHT22;2015;48.670;9.060;2023-01-24T05:12:26;1.80;99.90
4002;DHT22;2015;48.670;9.060;2023-01-24T05:14:57;1.70;99.90
4002;DHT22;2015;48.670;9.060;2023-01-24T05:17:29;1.70;99.90
4002;DHT22;2015;48.670;9.060;2023-01-24T05:20:02;1.70;99.90
4002;DHT22;2015;48.670;9.060;2023-01-24T05:22:34;1.70;99.90
4002;DHT22;2015;48.670;9.060;2023-01-24T05:25:06;1.70;99.90
4002;DHT22;2015;48.670;9.060;2023-01-24T05:27:40;1.70;99.90
4002;DHT22;2015;48.670;9.060;2023-01-24T05:30:12;1.70;99.90
4002;DHT22;2015;48.670;9.060;2023-01-24T05:32:43;1.70;99.90
4002;DHT22;2015;48.670;9.060;2023-01-24T05:35:15;1.70;99.90
4002;DHT22;2015;48.670;9.060;2023-01-24T05:37:47;1.70;99.90
4002;DHT22;2015;48.670;9.060;2023-01-24T05:40:21;1.70;99.90
4002;DHT22;2015;48.670;9.060;2023-01-24T05:42:53;1.70;99.90
4002;DHT22;2015;48.670;9.060;2023-01-24T05:45:24;1.70;99.90
4002;DHT22;2015;48.670;9.060;2023-01-24T05:47:56;1.70;99.90
4002;DHT22;2015;48.670;9.060;2023-01-24T05:50:28;1.60;99.90
4002;DHT22;2015;48.670;9.060;2023-01-24T05:53:02;1.70;99.90
4002;DHT22;2015;48.670;9.060;2023-01-24T05:55:33;1.70;99.90
4002;DHT22;2015;48.670;9.060;2023-01-24T05:58:05;1.70;99.90
4002;DHT22;2015;48.670;9.060;2023-01-24T06:00:37;1.70;99.90
4002;DHT22;2015;48.670;9.060;2023-01-24T06:03:09;1.70;99.90
4002;DHT22;2015;48.670;9.060;2023-01-24T06:05:45;1.70;99.90
4002;DHT22;2015;48.670;9.060;2023-01-24T06:08:17;1.70;99.90
4002;DHT22;2015;48.670;9.060;2023-01-24T06:10:49;1.70;99.90
4002;DHT22;2015;48.670;9.060;2023-01-24T06:13:21;1.70;99.90
4002;DHT22;2015;48.670;9.060;2023-01-24T06:16:10;1.70;99.90
4002;DHT22;2015;48.670;9.060;2023-01-24T06:18:42;1.70;99.90
4002;DHT22;2015;48.670;9.060;2023-01-24T06:24:01;1.70;99.90
4002;DHT22;2015;48.670;9.060;2023-01-24T06:26:34;1.70;99.90
4002;DHT22;2015;48.670;9.060;2023-01-24T06:29:06;1.70;99.90
4002;DHT22;2015;48.670;9.060;2023-01-24T06:40:08;1.70;99.90
4002;DHT22;2015;48.670;9.060;2023-01-24T06:42:41;1.70;99.90
4002;DHT22;2015;48.670;9.060;2023-01-24T06:45:13;1.70;99.90
4002;DHT22;2015;48.670;9.060;2023-01-24T06:47:45;1.70;99.90
4002;DHT22;2015;48.670;9.060;2023-01-24T06:50:20;1.70;99.90
4002;DHT22;2015;48.670;9.060;2023-01-24T06:52:52;1.70;99.90
4002;DHT22;2015;48.670;9.060;2023-01-24T06:55:25;1.70;99.90
4002;DHT22;2015;48.670;9.060;2023-01-24T06:57:58;1.70;99.90
4002;DHT22;2015;48.670;9.060;2023-01-24T07:00:30;1.70;99.90
4002;DHT22;2015;48.670;9.060;2023-01-24T07:03:06;1.70;99.90
4002;DHT22;2015;48.670;9.060;2023-01-24T07:05:39;1.60;99.90
4002;DHT22;2015;48.670;9.060;2023-01-24T07:08:10;1.60;99.90
4002;DHT22;2015;48.670;9.060;2023-01-24T07:10:43;1.60;99.90
4002;DHT22;2015;48.670;9.060;2023-01-24T07:13:15;1.60;99.90
4002;DHT22;2015;48.670;9.060;2023-01-24T07:15:47;1.60;99.90
4002;DHT22;2015;48.670;9.060;2023-01-24T07:18:19;1.60;99.90
4002;DHT22;2015;48.670;9.060;2023-01-24T07:20:51;1.70;99.90
4002;DHT22;2015;48.670;9.060;2023-01-24T07:23:25;1.70;99.90
4002;DHT22;2015;48.670;9.060;2023-01-24T07:25:59;1.70;99.90
4002;DHT22;2015;48.670;9.060;2023-01-24T07:28:31;1.70;99.90
4002;DHT22;2015;48.670;9.060;2023-01-24T07:31:04;1.70;99.90
4002;DHT22;2015;48.670;9.060;2023-01-24T07:33:36;1.70;99.90
4002;DHT22;2015;48.670;9.060;2023-01-24T07:36:12;1.70;99.90
4002;DHT22;2015;48.670;9.060;2023-01-24T07:38:44;1.80;99.90
4002;DHT22;2015;48.670;9.060;2023-01-24T07:41:16;1.80;99.90
4002;DHT22;2015;48.670;9.060;2023-01-24T07:43:48;1.70;99.90
4002;DHT22;2015;48.670;9.060;2023-01-24T07:46:20;1.70;99.90
4002;DHT22;2015;48.670;9.060;2023-01-24T07:48:52;1.70;99.90
4002;DHT22;2015;48.670;9.060;2023-01-24T07:51:24;1.80;99.90
4002;DHT22;2015;48.670;9.060;2023-01-24T07:53:55;1.80;99.90
4002;DHT22;2015;48.670;9.060;2023-01-24T07:56:27;1.80;99.90
4002;DHT22;2015;48.670;9.060;2023-01-24T07:58:59;1.80;99.90
4002;DHT22;2015;48.670;9.060;2023-01-24T08:01:31;1.80;99.90
4002;DHT22;2015;48.670;9.060;2023-01-24T08:04:03;1.80;99.90
4002;DHT22;2015;48.670;9.060;2023-01-24T08:06:35;1.80;99.90
4002;DHT22;2015;48.670;9.060;2023-01-24T08:09:07;1.80;99.90
4002;DHT22;2015;48.670;9.060;2023-01-24T08:11:38;1.80;99.90
4002;DHT22;2015;48.670;9.060;2023-01-24T08:14:10;1.90;99.90
4002;DHT22;2015;48.670;9.060;2023-01-24T08:16:42;1.90;99.90
4002;DHT22;2015;48.670;9.060;2023-01-24T08:19:14;1.90;99.90
4002;DHT22;2015;48.670;9.060;2023-01-24T08:22:06;1.90;99.90
4002;DHT22;2015;48.670;9.060;2023-01-24T08:24:38;2.00;99.90
4002;DHT22;2015;48.670;9.060;2023-01-24T08:27:10;2.00;99.90
4002;DHT22;2015;48.670;9.060;2023-01-24T08:29:41;2.00;99.90
4002;DHT22;2015;48.670;9.060;2023-01-24T08:32:13;1.90;99.90
4002;DHT22;2015;48.670;9.060;2023-01-24T08:34:45;2.00;99.90
4002;DHT22;2015;48.670;9.060;2023-01-24T08:37:17;1.90;99.90
4002;DHT22;2015;48.670;9.060;2023-01-24T08:39:49;2.00;99.90
4002;DHT22;2015;48.670;9.060;2023-01-24T08:42:21;2.00;99.90
4002;DHT22;2015;48.670;9.060;2023-01-24T08:44:54;2.00;99.90
4002;DHT22;2015;48.670;9.060;2023-01-24T08:47:26;2.00;99.90
4002;DHT22;2015;48.670;9.060;2023-01-24T08:49:59;2.00;99.90
4002;DHT22;2015;48.670;9.060;2023-01-24T08:52:30;2.00;99.90
4002;DHT22;2015;48.670;9.060;2023-01-24T08:55:02;2.00;99.90
4002;DHT22;2015;48.670;9.060;2023-01-24T08:57:34;2.00;99.90
4002;DHT22;2015;48.670;9.060;2023-01-24T09:00:07;2.00;99.90
4002;DHT22;2015;48.670;9.060;2023-01-24T09:02:39;2.00;99.90
4002;DHT22;2015;48.670;9.060;2023-01-24T09:05:10;2.00;99.90
4002;DHT22;2015;48.670;9.060;2023-01-24T09:07:42;2.00;99.90
4002;DHT22;2015;48.670;9.060;2023-01-24T09:10:15;2.00;99.90
4002;DHT22;2015;48.670;9.060;2023-01-24T09:12:47;2.00;99.90
4002;DHT22;2015;48.670;9.060;2023-01-24T09:15:18;2.00;99.90
4002;DHT22;2015;48.670;9.060;2023-01-24T09:17:50;2.10;99.90
4002;DHT22;2015;48.670;9.060;2023-01-24T09:20:22;2.10;99.90
4002;DHT22;2015;48.670;9.060;2023-01-24T09:22:54;2.10;99.90
4002;DHT22;2015;48.670;9.060;2023-01-24T09:25:26;2.10;99.90
4002;DHT22;2015;48.670;9.060;2023-01-24T09:27:57;2.20;99.90
4002;DHT22;2015;48.670;9.060;2023-01-24T09:30:29;2.20;99.90
4002;DHT22;2015;48.670;9.060;2023-01-24T09:33:04;2.10;99.90
4002;DHT22;2015;48.670;9.060;2023-01-24T09:35:36;2.20;99.90
4002;DHT22;2015;48.670;9.060;2023-01-24T09:38:08;2.20;99.90
4002;DHT22;2015;48.670;9.060;2023-01-24T09:40:45;2.20;99.90
4002;DHT22;2015;48.670;9.060;2023-01-24T09:46:40;2.30;99.90
4002;DHT22;2015;48.670;9.060;2023-01-24T09:49:39;2.30;99.90
4002;DHT22;2015;48.670;9.060;2023-01-24T09:52:24;2.30;99.90
4002;DHT22;2015;48.670;9.060;2023-01-24T09:55:05;2.30;99.90
4002;DHT22;2015;48.670;9.060;2023-01-24T09:57:50;2.30;99.90
4002;DHT22;2015;48.670;9.060;2023-01-24T10:00:29;2.30;99.90
4002;DHT22;2015;48.670;9.060;2023-01-24T10:03:01;2.40;99.90
4002;DHT22;2015;48.670;9.060;2023-01-24T10:05:37;2.40;99.90
4002;DHT22;2015;48.670;9.060;2023-01-24T10:08:15;2.50;99.90
4002;DHT22;2015;48.670;9.060;2023-01-24T10:24:41;2.50;99.90
4002;DHT22;2015;48.670;9.060;2023-01-24T10:27:20;2.50;99.90
4002;DHT22;2015;48.670;9.060;2023-01-24T10:29:59;2.50;99.90
4002;DHT22;2015;48.670;9.060;2023-01-24T10:32:33;2.60;99.90
4002;DHT22;2015;48.670;9.060;2023-01-24T10:35:15;2.50;99.90
4002;DHT22;2015;48.670;9.060;2023-01-24T10:37:50;2.50;99.90
4002;DHT22;2015;48.670;9.060;2023-01-24T10:40:27;2.50;99.90
4002;DHT22;2015;48.670;9.060;2023-01-24T10:43:06;2.50;99.90
4002;DHT22;2015;48.670;9.060;2023-01-24T10:46:02;2.60;99.90
4002;DHT22;2015;48.670;9.060;2023-01-24T10:48:44;2.60;99.90
4002;DHT22;2015;48.670;9.060;2023-01-24T10:51:22;2.60;99.90
4002;DHT22;2015;48.670;9.060;2023-01-24T10:54:01;2.70;99.90
4002;DHT22;2015;48.670;9.060;2023-01-24T10:56:38;2.70;99.90
4002;DHT22;2015;48.670;9.060;2023-01-24T10:59:11;2.70;99.90
4002;DHT22;2015;48.670;9.060;2023-01-24T11:01:46;2.80;99.90
4002;DHT22;2015;48.670;9.060;2023-01-24T11:04:27;2.80;99.90
4002;DHT22;2015;48.670;9.060;2023-01-24T11:06:59;2.80;99.90
4002;DHT22;2015;48.670;9.060;2023-01-24T11:09:33;2.80;99.90
4002;DHT22;2015;48.670;9.060;2023-01-24T11:12:13;2.80;99.90
4002;DHT22;2015;48.670;9.060;2023-01-24T11:14:47;2.80;99.90
4002;DHT22;2015;48.670;9.060;2023-01-24T11:17:30;3.00;99.90
4002;DHT22;2015;48.670;9.060;2023-01-24T11:20:43;3.00;99.90
4002;DHT22;2015;48.670;9.060;2023-01-24T11:23:20;3.00;99.90
4002;DHT22;2015;48.670;9.060;2023-01-24T11:25:57;3.00;99.90
4002;DHT22;2015;48.670;9.060;2023-01-24T11:28:38;3.00;99.90
4002;DHT22;2015;48.670;9.060;2023-01-24T11:34:13;3.00;99.90
4002;DHT22;2015;48.670;9.060;2023-01-24T11:37:32;3.00;99.90
4002;DHT22;2015;48.670;9.060;2023-01-24T11:48:42;3.00;99.90
4002;DHT22;2015;48.670;9.060;2023-01-24T11:54:30;3.00;99.90
4002;DHT22;2015;48.670;9.060;2023-01-24T11:57:15;3.00;99.90
4002;DHT22;2015;48.670;9.060;2023-01-24T12:11:15;2.80;99.90
4002;DHT22;2015;48.670;9.060;2023-01-24T12:14:30;2.80;99.90
4002;DHT22;2015;48.670;9.060;2023-01-24T12:22:28;2.90;99.90
4002;DHT22;2015;48.670;9.060;2023-01-24T12:25:05;2.90;99.90
4002;DHT22;2015;48.670;9.060;2023-01-24T12:27:45;2.90;99.90
4002;DHT22;2015;48.670;9.060;2023-01-24T12:33:03;3.00;99.90
4002;DHT22;2015;48.670;9.060;2023-01-24T12:35:44;3.10;99.90
4002;DHT22;2015;48.670;9.060;2023-01-24T12:38:36;3.00;99.90
4002;DHT22;2015;48.670;9.060;2023-01-24T12:41:30;3.10;99.90
4002;DHT22;2015;48.670;9.060;2023-01-24T12:52:52;3.10;99.90
4002;DHT22;2015;48.670;9.060;2023-01-24T12:58:27;3.10;99.90
4002;DHT22;2015;48.670;9.060;2023-01-24T13:01:26;3.10;99.90
4002;DHT22;2015;48.670;9.060;2023-01-24T13:04:20;3.10;99.90
4002;DHT22;2015;48.670;9.060;2023-01-24T13:07:18;3.10;99.90
4002;DHT22;2015;48.670;9.060;2023-01-24T13:12:58;3.10;99.90
4002;DHT22;2015;48.670;9.060;2023-01-24T13:15:46;3.10;99.90
4002;DHT22;2015;48.670;9.060;2023-01-24T13:25:00;3.10;99.90
4002;DHT22;2015;48.670;9.060;2023-01-24T13:33:28;2.90;99.90
4002;DHT22;2015;48.670;9.060;2023-01-24T13:36:06;2.90;99.90
4002;DHT22;2015;48.670;9.060;2023-01-24T13:38:41;2.90;99.90
4002;DHT22;2015;48.670;9.060;2023-01-24T13:41:38;2.90;99.90
4002;DHT22;2015;48.670;9.060;2023-01-24T13:47:01;2.80;99.90
4002;DHT22;2015;48.670;9.060;2023-01-24T14:03:36;2.70;99.90
4002;DHT22;2015;48.670;9.060;2023-01-24T14:06:13;2.70;99.90
4002;DHT22;2015;48.670;9.060;2023-01-24T14:08:49;2.70;99.90
4002;DHT22;2015;48.670;9.060;2023-01-24T14:11:27;2.70;99.90
4002;DHT22;2015;48.670;9.060;2023-01-24T14:14:02;2.70;99.90
4002;DHT22;2015;48.670;9.060;2023-01-24T14:19:22;2.70;99.90
4002;DHT22;2015;48.670;9.060;2023-01-24T14:22:16;2.60;99.90
4002;DHT22;2015;48.670;9.060;2023-01-24T14:25:04;2.70;99.90
4002;DHT22;2015;48.670;9.060;2023-01-24T14:28:00;2.60;99.90
4002;DHT22;2015;48.670;9.060;2023-01-24T14:30:36;2.60;99.90
4002;DHT22;2015;48.670;9.060;2023-01-24T14:33:27;2.60;99.90
4002;DHT22;2015;48.670;9.060;2023-01-24T14:36:20;2.60;99.90
4002;DHT22;2015;48.670;9.060;2023-01-24T14:39:23;2.50;99.90
4002;DHT22;2015;48.670;9.060;2023-01-24T14:41:58;2.50;99.90
4002;DHT22;2015;48.670;9.060;2023-01-24T14:44:37;2.50;99.90
4002;DHT22;2015;48.670;9.060;2023-01-24T14:47:19;2.50;99.90
4002;DHT22;2015;48.670;9.060;2023-01-24T14:49:57;2.50;99.90
4002;DHT22;2015;48.670;9.060;2023-01-24T14:52:31;2.50;99.90
4002;DHT22;2015;48.670;9.060;2023-01-24T14:55:34;2.50;99.90
4002;DHT22;2015;48.670;9.060;2023-01-24T14:58:22;2.50;99.90
4002;DHT22;2015;48.670;9.060;2023-01-24T15:00:56;2.50;99.90
4002;DHT22;2015;48.670;9.060;2023-01-24T15:03:31;2.50;99.90
4002;DHT22;2015;48.670;9.060;2023-01-24T15:06:05;2.50;99.90
4002;DHT22;2015;48.670;9.060;2023-01-24T15:08:37;2.50;99.90
4002;DHT22;2015;48.670;9.060;2023-01-24T15:14:17;2.50;99.90
4002;DHT22;2015;48.670;9.060;2023-01-24T15:16:54;2.40;99.90
4002;DHT22;2015;48.670;9.060;2023-01-24T15:19:27;2.50;99.90
4002;DHT22;2015;48.670;9.060;2023-01-24T15:22:00;2.50;99.90
4002;DHT22;2015;48.670;9.060;2023-01-24T15:24:32;2.50;99.90
4002;DHT22;2015;48.670;9.060;2023-01-24T15:27:21;2.40;99.90
4002;DHT22;2015;48.670;9.060;2023-01-24T15:30:14;2.40;99.90
4002;DHT22;2015;48.670;9.060;2023-01-24T15:33:12;2.40;99.90
4002;DHT22;2015;48.670;9.060;2023-01-24T15:35:48;2.40;99.90
4002;DHT22;2015;48.670;9.060;2023-01-24T15:38:27;2.40;99.90
4002;DHT22;2015;48.670;9.060;2023-01-24T15:41:21;2.30;99.90
4002;DHT22;2015;48.670;9.060;2023-01-24T15:44:06;2.40;99.90
4002;DHT22;2015;48.670;9.060;2023-01-24T15:46:40;2.40;99.90
4002;DHT22;2015;48.670;9.060;2023-01-24T15:49:59;2.40;99.90
4002;DHT22;2015;48.670;9.060;2023-01-24T15:52:32;2.30;99.90
4002;DHT22;2015;48.670;9.060;2023-01-24T15:55:04;2.30;99.90
4002;DHT22;2015;48.670;9.060;2023-01-24T15:57:38;2.30;99.90
4002;DHT22;2015;48.670;9.060;2023-01-24T16:02:44;2.40;99.90
4002;DHT22;2015;48.670;9.060;2023-01-24T16:05:18;2.30;99.90
4002;DHT22;2015;48.670;9.060;2023-01-24T16:07:50;2.30;99.90
4002;DHT22;2015;48.670;9.060;2023-01-24T16:10:22;2.30;99.90
4002;DHT22;2015;48.670;9.060;2023-01-24T16:12:53;2.30;99.90
4002;DHT22;2015;48.670;9.060;2023-01-24T16:15:25;2.30;99.90
4002;DHT22;2015;48.670;9.060;2023-01-24T16:17:57;2.30;99.90
4002;DHT22;2015;48.670;9.060;2023-01-24T16:20:29;2.30;99.90
4002;DHT22;2015;48.670;9.060;2023-01-24T16:23:02;2.20;99.90
4002;DHT22;2015;48.670;9.060;2023-01-24T16:25:35;2.20;99.90
4002;DHT22;2015;48.670;9.060;2023-01-24T16:28:18;2.20;99.90
4002;DHT22;2015;48.670;9.060;2023-01-24T16:30:52;2.20;99.90
4002;DHT22;2015;48.670;9.060;2023-01-24T16:33:25;2.20;99.90
4002;DHT22;2015;48.670;9.060;2023-01-24T16:35:57;2.30;99.90
4002;DHT22;2015;48.670;9.060;2023-01-24T16:38:29;2.20;99.90
4002;DHT22;2015;48.670;9.060;2023-01-24T16:41:03;2.20;99.90
4002;DHT22;2015;48.670;9.060;2023-01-24T16:43:35;2.20;99.90
4002;DHT22;2015;48.670;9.060;2023-01-24T16:46:16;2.20;99.90
4002;DHT22;2015;48.670;9.060;2023-01-24T16:48:49;2.30;99.90
4002;DHT22;2015;48.670;9.060;2023-01-24T16:51:21;2.30;99.90
4002;DHT22;2015;48.670;9.060;2023-01-24T16:53:56;2.30;99.90
4002;DHT22;2015;48.670;9.060;2023-01-24T16:56:29;2.20;99.90
4002;DHT22;2015;48.670;9.060;2023-01-24T16:59:00;2.20;99.90
4002;DHT22;2015;48.670;9.060;2023-01-24T17:01:32;2.20;99.90
4002;DHT22;2015;48.670;9.060;2023-01-24T17:04:04;2.20;99.90
4002;DHT22;2015;48.670;9.060;2023-01-24T17:06:36;2.20;99.90
4002;DHT22;2015;48.670;9.060;2023-01-24T17:09:08;2.20;99.90
4002;DHT22;2015;48.670;9.060;2023-01-24T17:11:40;2.10;99.90
4002;DHT22;2015;48.670;9.060;2023-01-24T17:14:11;2.20;99.90
4002;DHT22;2015;48.670;9.060;2023-01-24T17:16:43;2.10;99.90
4002;DHT22;2015;48.670;9.060;2023-01-24T17:19:15;2.10;99.90
4002;DHT22;2015;48.670;9.060;2023-01-24T17:21:47;2.10;99.90
4002;DHT22;2015;48.670;9.060;2023-01-24T17:24:19;2.10;99.90
4002;DHT22;2015;48.670;9.060;2023-01-24T17:26:52;2.10;99.90
4002;DHT22;2015;48.670;9.060;2023-01-24T17:29:24;2.10;99.90
4002;DHT22;2015;48.670;9.060;2023-01-24T17:31:59;2.10;99.90
4002;DHT22;2015;48.670;9.060;2023-01-24T17:34:30;2.10;99.90
4002;DHT22;2015;48.670;9.060;2023-01-24T17:37:03;2.10;99.90
4002;DHT22;2015;48.670;9.060;2023-01-24T17:39:34;2.10;99.90
4002;DHT22;2015;48.670;9.060;2023-01-24T17:42:06;2.10;99.90
4002;DHT22;2015;48.670;9.060;2023-01-24T17:44:38;2.10;99.90
4002;DHT22;2015;48.670;9.060;2023-01-24T17:47:09;2.00;99.90
4002;DHT22;2015;48.670;9.060;2023-01-24T17:49:41;2.00;99.90
4002;DHT22;2015;48.670;9.060;2023-01-24T17:52:13;2.00;99.90
4002;DHT22;2015;48.670;9.060;2023-01-24T17:54:45;2.00;99.90
4002;DHT22;2015;48.670;9.060;2023-01-24T17:57:16;2.00;99.90
4002;DHT22;2015;48.670;9.060;2023-01-24T17:59:48;2.00;99.90
4002;DHT22;2015;48.670;9.060;2023-01-24T18:02:20;1.90;99.90
4002;DHT22;2015;48.670;9.060;2023-01-24T18:04:51;1.90;99.90
4002;DHT22;2015;48.670;9.060;2023-01-24T18:07:23;1.90;99.90
4002;DHT22;2015;48.670;9.060;2023-01-24T18:09:55;1.90;99.90
4002;DHT22;2015;48.670;9.060;2023-01-24T18:12:27;1.90;99.90
4002;DHT22;2015;48.670;9.060;2023-01-24T18:14:59;1.90;99.90
4002;DHT22;2015;48.670;9.060;2023-01-24T18:17:30;1.90;99.90
4002;DHT22;2015;48.670;9.060;2023-01-24T18:20:03;1.80;99.90
4002;DHT22;2015;48.670;9.060;2023-01-24T18:22:40;1.90;99.90
4002;DHT22;2015;48.670;9.060;2023-01-24T18:25:12;1.90;99.90
4002;DHT22;2015;48.670;9.060;2023-01-24T18:27:44;1.90;99.90
4002;DHT22;2015;48.670;9.060;2023-01-24T18:30:17;1.90;99.90
4002;DHT22;2015;48.670;9.060;2023-01-24T18:32:48;1.90;99.90
4002;DHT22;2015;48.670;9.060;2023-01-24T18:35:20;1.90;99.90
4002;DHT22;2015;48.670;9.060;2023-01-24T18:37:52;1.90;99.90
4002;DHT22;2015;48.670;9.060;2023-01-24T18:40:24;1.90;99.90
4002;DHT22;2015;48.670;9.060;2023-01-24T18:42:55;1.90;99.90
4002;DHT22;2015;48.670;9.060;2023-01-24T18:45:27;1.90;99.90
4002;DHT22;2015;48.670;9.060;2023-01-24T18:47:59;1.90;99.90
4002;DHT22;2015;48.670;9.060;2023-01-24T18:50:31;1.90;99.90
4002;DHT22;2015;48.670;9.060;2023-01-24T18:53:03;1.90;99.90
4002;DHT22;2015;48.670;9.060;2023-01-24T18:55:35;1.90;99.90
4002;DHT22;2015;48.670;9.060;2023-01-24T18:58:07;1.90;99.90
4002;DHT22;2015;48.670;9.060;2023-01-24T19:00:39;1.90;99.90
4002;DHT22;2015;48.670;9.060;2023-01-24T19:03:14;1.90;99.90
4002;DHT22;2015;48.670;9.060;2023-01-24T19:05:45;1.90;99.90
4002;DHT22;2015;48.670;9.060;2023-01-24T19:08:17;2.00;99.90
4002;DHT22;2015;48.670;9.060;2023-01-24T19:10:49;2.00;99.90
4002;DHT22;2015;48.670;9.060;2023-01-24T19:13:21;2.00;99.90
4002;DHT22;2015;48.670;9.060;2023-01-24T19:15:59;1.90;99.90
4002;DHT22;2015;48.670;9.060;2023-01-24T19:18:32;1.90;99.90
4002;DHT22;2015;48.670;9.060;2023-01-24T19:21:09;1.90;99.90
4002;DHT22;2015;48.670;9.060;2023-01-24T19:23:42;1.90;99.90